sensor_id;sensor_type;location;lat;lon;timestamp;P1;durP1;ratioP1;P2;durP2;ratioP2
19339;SDS011;9804;52.350;6.684;2024-03-06T00:00:24;76.75;;;39.97;;
19339;SDS011;9804;52.350;6.684;2024-03-06T00:02:50;78.85;;;41.17;;
19339;SDS011;9804;52.350;6.684;2024-03-06T00:05:16;77.78;;;41.97;;
19339;SDS011;9804;52.350;6.684;2024-03-06T00:07:42;74.28;;;41.60;;
19339;SDS011;9804;52.350;6.684;2024-03-06T00:10:07;73.25;;;40.15;;
19339;SDS011;9804;52.350;6.684;2024-03-06T00:12:33;82.95;;;43.38;;
19339;SDS011;9804;52.350;6.684;2024-03-06T00:14:59;81.40;;;43.08;;
19339;SDS011;9804;52.350;6.684;2024-03-06T00:17:25;77.87;;;40.40;;
19339;SDS011;9804;52.350;6.684;2024-03-06T00:19:50;78.00;;;42.08;;
19339;SDS011;9804;52.350;6.684;2024-03-06T00:22:16;78.65;;;42.25;;
19339;SDS011;9804;52.350;6.684;2024-03-06T00:24:42;82.93;;;42.67;;
19339;SDS011;9804;52.350;6.684;2024-03-06T00:27:07;78.13;;;40.47;;
19339;SDS011;9804;52.350;6.684;2024-03-06T00:29:33;77.20;;;41.78;;
19339;SDS011;9804;52.350;6.684;2024-03-06T00:32:01;80.47;;;41.15;;
19339;SDS011;9804;52.350;6.684;2024-03-06T00:34:27;80.65;;;41.63;;
19339;SDS011;9804;52.350;6.684;2024-03-06T00:36:52;74.83;;;41.77;;
19339;SDS011;9804;52.350;6.684;2024-03-06T00:39:19;80.25;;;42.05;;
19339;SDS011;9804;52.350;6.684;2024-03-06T00:41:44;79.30;;;41.90;;
19339;SDS011;9804;52.350;6.684;2024-03-06T00:44:10;78.95;;;41.45;;
19339;SDS011;9804;52.350;6.684;2024-03-06T00:46:35;81.35;;;42.15;;
19339;SDS011;9804;52.350;6.684;2024-03-06T00:49:01;86.53;;;42.83;;
19339;SDS011;9804;52.350;6.684;2024-03-06T00:51:27;84.90;;;43.08;;
19339;SDS011;9804;52.350;6.684;2024-03-06T00:53:52;89.05;;;44.15;;
19339;SDS011;9804;52.350;6.684;2024-03-06T00:56:18;88.53;;;41.53;;
19339;SDS011;9804;52.350;6.684;2024-03-06T00:58:43;82.53;;;40.85;;
19339;SDS011;9804;52.350;6.684;2024-03-06T01:01:09;86.40;;;42.40;;
19339;SDS011;9804;52.350;6.684;2024-03-06T01:03:34;79.38;;;40.60;;
19339;SDS011;9804;52.350;6.684;2024-03-06T01:05:59;86.40;;;42.72;;
19339;SDS011;9804;52.350;6.684;2024-03-06T01:08:25;80.25;;;43.35;;
19339;SDS011;9804;52.350;6.684;2024-03-06T01:10:51;84.18;;;42.35;;
19339;SDS011;9804;52.350;6.684;2024-03-06T01:13:17;79.78;;;40.72;;
19339;SDS011;9804;52.350;6.684;2024-03-06T01:15:45;83.70;;;40.88;;
19339;SDS011;9804;52.350;6.684;2024-03-06T01:18:11;77.10;;;40.67;;
19339;SDS011;9804;52.350;6.684;2024-03-06T01:20:36;79.88;;;43.15;;
19339;SDS011;9804;52.350;6.684;2024-03-06T01:23:02;77.50;;;41.80;;
19339;SDS011;9804;52.350;6.684;2024-03-06T01:25:28;88.40;;;41.75;;
19339;SDS011;9804;52.350;6.684;2024-03-06T01:27:53;85.53;;;43.25;;
19339;SDS011;9804;52.350;6.684;2024-03-06T01:30:19;83.30;;;43.05;;
19339;SDS011;9804;52.350;6.684;2024-03-06T01:32:44;84.90;;;42.67;;
19339;SDS011;9804;52.350;6.684;2024-03-06T01:35:10;86.50;;;41.55;;
19339;SDS011;9804;52.350;6.684;2024-03-06T01:37:35;91.18;;;42.85;;
19339;SDS011;9804;52.350;6.684;2024-03-06T01:40:00;84.93;;;44.00;;
19339;SDS011;9804;52.350;6.684;2024-03-06T01:42:29;91.80;;;43.17;;
19339;SDS011;9804;52.350;6.684;2024-03-06T01:44:54;87.60;;;42.78;;
19339;SDS011;9804;52.350;6.684;2024-03-06T01:47:20;88.20;;;43.92;;
19339;SDS011;9804;52.350;6.684;2024-03-06T01:49:45;91.20;;;44.08;;
19339;SDS011;9804;52.350;6.684;2024-03-06T01:52:12;90.25;;;44.42;;
19339;SDS011;9804;52.350;6.684;2024-03-06T01:54:40;92.07;;;43.60;;
19339;SDS011;9804;52.350;6.684;2024-03-06T01:57:06;88.93;;;43.55;;
19339;SDS011;9804;52.350;6.684;2024-03-06T01:59:33;89.78;;;41.75;;
19339;SDS011;9804;52.350;6.684;2024-03-06T02:01:59;90.97;;;42.92;;
19339;SDS011;9804;52.350;6.684;2024-03-06T02:04:26;87.80;;;43.78;;
19339;SDS011;9804;52.350;6.684;2024-03-06T02:06:53;81.10;;;41.53;;
19339;SDS011;9804;52.350;6.684;2024-03-06T02:09:19;90.75;;;43.28;;
19339;SDS011;9804;52.350;6.684;2024-03-06T02:11:45;89.82;;;42.80;;
19339;SDS011;9804;52.350;6.684;2024-03-06T02:14:10;85.37;;;41.30;;
19339;SDS011;9804;52.350;6.684;2024-03-06T02:16:36;90.78;;;44.08;;
19339;SDS011;9804;52.350;6.684;2024-03-06T02:19:04;90.20;;;42.58;;
19339;SDS011;9804;52.350;6.684;2024-03-06T02:21:29;95.82;;;43.70;;
19339;SDS011;9804;52.350;6.684;2024-03-06T02:23:55;76.63;;;41.35;;
19339;SDS011;9804;52.350;6.684;2024-03-06T02:26:21;90.10;;;44.80;;
19339;SDS011;9804;52.350;6.684;2024-03-06T02:28:47;85.43;;;43.53;;
19339;SDS011;9804;52.350;6.684;2024-03-06T02:31:17;88.22;;;42.97;;
19339;SDS011;9804;52.350;6.684;2024-03-06T02:33:43;89.20;;;43.47;;
19339;SDS011;9804;52.350;6.684;2024-03-06T02:36:18;95.05;;;42.40;;
19339;SDS011;9804;52.350;6.684;2024-03-06T02:38:44;97.10;;;44.03;;
19339;SDS011;9804;52.350;6.684;2024-03-06T02:41:10;94.60;;;42.70;;
19339;SDS011;9804;52.350;6.684;2024-03-06T02:43:36;89.32;;;43.92;;
19339;SDS011;9804;52.350;6.684;2024-03-06T02:46:02;86.15;;;43.13;;
19339;SDS011;9804;52.350;6.684;2024-03-06T02:48:28;87.22;;;41.03;;
19339;SDS011;9804;52.350;6.684;2024-03-06T02:50:54;90.97;;;43.10;;
19339;SDS011;9804;52.350;6.684;2024-03-06T02:53:20;86.22;;;43.25;;
19339;SDS011;9804;52.350;6.684;2024-03-06T02:55:46;92.80;;;45.03;;
19339;SDS011;9804;52.350;6.684;2024-03-06T02:58:12;92.95;;;42.60;;
19339;SDS011;9804;52.350;6.684;2024-03-06T03:00:39;95.47;;;43.80;;
19339;SDS011;9804;52.350;6.684;2024-03-06T03:03:06;87.28;;;41.45;;
19339;SDS011;9804;52.350;6.684;2024-03-06T03:05:31;91.10;;;42.80;;
19339;SDS011;9804;52.350;6.684;2024-03-06T03:07:58;85.25;;;42.55;;
19339;SDS011;9804;52.350;6.684;2024-03-06T03:10:24;95.60;;;45.50;;
19339;SDS011;9804;52.350;6.684;2024-03-06T03:12:49;91.07;;;46.30;;
19339;SDS011;9804;52.350;6.684;2024-03-06T03:15:16;90.30;;;44.72;;
19339;SDS011;9804;52.350;6.684;2024-03-06T03:17:41;99.47;;;43.05;;
19339;SDS011;9804;52.350;6.684;2024-03-06T03:20:07;93.68;;;44.25;;
19339;SDS011;9804;52.350;6.684;2024-03-06T03:22:36;97.07;;;44.08;;
19339;SDS011;9804;52.350;6.684;2024-03-06T03:25:03;95.35;;;43.33;;
19339;SDS011;9804;52.350;6.684;2024-03-06T03:27:32;97.05;;;44.80;;
19339;SDS011;9804;52.350;6.684;2024-03-06T03:29:58;91.68;;;44.90;;
19339;SDS011;9804;52.350;6.684;2024-03-06T03:32:23;92.38;;;44.63;;
19339;SDS011;9804;52.350;6.684;2024-03-06T03:34:49;89.40;;;43.50;;
19339;SDS011;9804;52.350;6.684;2024-03-06T03:37:14;96.47;;;43.90;;
19339;SDS011;9804;52.350;6.684;2024-03-06T03:39:40;97.82;;;45.25;;
19339;SDS011;9804;52.350;6.684;2024-03-06T03:42:07;98.45;;;46.03;;
19339;SDS011;9804;52.350;6.684;2024-03-06T03:44:32;104.60;;;44.90;;
19339;SDS011;9804;52.350;6.684;2024-03-06T03:46:58;94.82;;;45.53;;
19339;SDS011;9804;52.350;6.684;2024-03-06T03:49:23;100.10;;;43.55;;
19339;SDS011;9804;52.350;6.684;2024-03-06T03:51:49;105.25;;;46.33;;
19339;SDS011;9804;52.350;6.684;2024-03-06T03:54:14;93.40;;;45.00;;
19339;SDS011;9804;52.350;6.684;2024-03-06T03:56:40;89.20;;;41.97;;
19339;SDS011;9804;52.350;6.684;2024-03-06T03:59:05;88.50;;;43.97;;
19339;SDS011;9804;52.350;6.684;2024-03-06T04:01:31;96.47;;;44.47;;
19339;SDS011;9804;52.350;6.684;2024-03-06T04:03:56;97.28;;;45.00;;
19339;SDS011;9804;52.350;6.684;2024-03-06T04:06:21;92.40;;;45.15;;
19339;SDS011;9804;52.350;6.684;2024-03-06T04:08:47;90.47;;;44.47;;
19339;SDS011;9804;52.350;6.684;2024-03-06T04:11:13;98.30;;;45.60;;
19339;SDS011;9804;52.350;6.684;2024-03-06T04:13:39;99.32;;;46.15;;
19339;SDS011;9804;52.350;6.684;2024-03-06T04:16:05;100.03;;;47.88;;
19339;SDS011;9804;52.350;6.684;2024-03-06T04:18:31;92.65;;;44.03;;
19339;SDS011;9804;52.350;6.684;2024-03-06T04:21:08;109.85;;;44.92;;
19339;SDS011;9804;52.350;6.684;2024-03-06T04:23:35;91.75;;;43.65;;
19339;SDS011;9804;52.350;6.684;2024-03-06T04:26:01;93.78;;;44.72;;
19339;SDS011;9804;52.350;6.684;2024-03-06T04:28:28;88.57;;;43.25;;
19339;SDS011;9804;52.350;6.684;2024-03-06T04:30:54;91.15;;;42.88;;
19339;SDS011;9804;52.350;6.684;2024-03-06T04:33:19;98.68;;;43.50;;
19339;SDS011;9804;52.350;6.684;2024-03-06T04:35:45;96.88;;;44.17;;
19339;SDS011;9804;52.350;6.684;2024-03-06T04:38:10;93.88;;;43.35;;
19339;SDS011;9804;52.350;6.684;2024-03-06T04:40:36;90.05;;;43.75;;
19339;SDS011;9804;52.350;6.684;2024-03-06T04:43:01;89.80;;;43.08;;
19339;SDS011;9804;52.350;6.684;2024-03-06T04:45:27;85.97;;;43.70;;
19339;SDS011;9804;52.350;6.684;2024-03-06T04:47:53;86.97;;;42.35;;
19339;SDS011;9804;52.350;6.684;2024-03-06T04:50:19;83.20;;;41.10;;
19339;SDS011;9804;52.350;6.684;2024-03-06T04:52:45;94.03;;;43.38;;
19339;SDS011;9804;52.350;6.684;2024-03-06T04:55:10;91.95;;;41.70;;
19339;SDS011;9804;52.350;6.684;2024-03-06T04:57:37;88.47;;;43.53;;
19339;SDS011;9804;52.350;6.684;2024-03-06T05:00:04;91.47;;;43.83;;
19339;SDS011;9804;52.350;6.684;2024-03-06T05:02:33;92.13;;;43.25;;
19339;SDS011;9804;52.350;6.684;2024-03-06T05:05:00;87.75;;;44.53;;
19339;SDS011;9804;52.350;6.684;2024-03-06T05:07:27;89.15;;;42.70;;
19339;SDS011;9804;52.350;6.684;2024-03-06T05:09:54;90.28;;;42.03;;
19339;SDS011;9804;52.350;6.684;2024-03-06T05:12:19;86.55;;;42.72;;
19339;SDS011;9804;52.350;6.684;2024-03-06T05:14:45;92.88;;;43.65;;
19339;SDS011;9804;52.350;6.684;2024-03-06T05:17:10;95.15;;;42.90;;
19339;SDS011;9804;52.350;6.684;2024-03-06T05:19:36;98.38;;;43.88;;
19339;SDS011;9804;52.350;6.684;2024-03-06T05:22:02;87.60;;;40.72;;
19339;SDS011;9804;52.350;6.684;2024-03-06T05:24:28;89.32;;;42.90;;
19339;SDS011;9804;52.350;6.684;2024-03-06T05:26:54;90.75;;;42.53;;
19339;SDS011;9804;52.350;6.684;2024-03-06T05:29:19;93.47;;;42.60;;
19339;SDS011;9804;52.350;6.684;2024-03-06T05:31:45;89.97;;;43.95;;
19339;SDS011;9804;52.350;6.684;2024-03-06T05:34:10;91.78;;;43.72;;
19339;SDS011;9804;52.350;6.684;2024-03-06T05:36:36;91.80;;;42.53;;
19339;SDS011;9804;52.350;6.684;2024-03-06T05:39:01;84.35;;;41.60;;
19339;SDS011;9804;52.350;6.684;2024-03-06T05:41:31;86.28;;;44.47;;
19339;SDS011;9804;52.350;6.684;2024-03-06T05:43:56;87.13;;;43.50;;
19339;SDS011;9804;52.350;6.684;2024-03-06T05:46:22;90.95;;;42.58;;
19339;SDS011;9804;52.350;6.684;2024-03-06T05:48:47;93.75;;;42.88;;
19339;SDS011;9804;52.350;6.684;2024-03-06T05:51:13;84.25;;;43.92;;
19339;SDS011;9804;52.350;6.684;2024-03-06T05:53:38;90.32;;;43.65;;
19339;SDS011;9804;52.350;6.684;2024-03-06T05:56:06;86.07;;;43.42;;
19339;SDS011;9804;52.350;6.684;2024-03-06T05:58:31;86.68;;;43.05;;
19339;SDS011;9804;52.350;6.684;2024-03-06T06:00:57;92.38;;;42.22;;
19339;SDS011;9804;52.350;6.684;2024-03-06T06:03:23;77.60;;;40.17;;
19339;SDS011;9804;52.350;6.684;2024-03-06T06:05:48;81.32;;;40.45;;
19339;SDS011;9804;52.350;6.684;2024-03-06T06:08:14;81.25;;;40.20;;
19339;SDS011;9804;52.350;6.684;2024-03-06T06:10:39;77.37;;;40.37;;
19339;SDS011;9804;52.350;6.684;2024-03-06T06:13:04;91.40;;;42.27;;
19339;SDS011;9804;52.350;6.684;2024-03-06T06:15:30;84.70;;;42.07;;
19339;SDS011;9804;52.350;6.684;2024-03-06T06:17:56;78.43;;;39.27;;
19339;SDS011;9804;52.350;6.684;2024-03-06T06:20:21;75.60;;;39.70;;
19339;SDS011;9804;52.350;6.684;2024-03-06T06:22:47;77.90;;;41.00;;
19339;SDS011;9804;52.350;6.684;2024-03-06T06:25:12;71.30;;;38.90;;
19339;SDS011;9804;52.350;6.684;2024-03-06T06:27:38;76.57;;;40.67;;
19339;SDS011;9804;52.350;6.684;2024-03-06T06:30:04;74.03;;;39.00;;
19339;SDS011;9804;52.350;6.684;2024-03-06T06:32:30;82.27;;;40.53;;
19339;SDS011;9804;52.350;6.684;2024-03-06T06:34:55;81.37;;;41.37;;
19339;SDS011;9804;52.350;6.684;2024-03-06T06:37:21;71.57;;;37.13;;
19339;SDS011;9804;52.350;6.684;2024-03-06T06:39:46;71.20;;;39.93;;
19339;SDS011;9804;52.350;6.684;2024-03-06T06:42:13;83.77;;;41.97;;
19339;SDS011;9804;52.350;6.684;2024-03-06T06:44:38;74.10;;;39.67;;
19339;SDS011;9804;52.350;6.684;2024-03-06T06:47:04;76.97;;;40.57;;
19339;SDS011;9804;52.350;6.684;2024-03-06T06:49:29;80.00;;;40.20;;
19339;SDS011;9804;52.350;6.684;2024-03-06T06:51:55;76.25;;;38.65;;
19339;SDS011;9804;52.350;6.684;2024-03-06T06:54:20;77.70;;;38.83;;
19339;SDS011;9804;52.350;6.684;2024-03-06T06:56:46;72.07;;;39.67;;
19339;SDS011;9804;52.350;6.684;2024-03-06T06:59:12;69.40;;;39.50;;
19339;SDS011;9804;52.350;6.684;2024-03-06T07:01:38;68.80;;;39.57;;
19339;SDS011;9804;52.350;6.684;2024-03-06T07:04:05;70.77;;;38.93;;
19339;SDS011;9804;52.350;6.684;2024-03-06T07:06:31;72.87;;;40.73;;
19339;SDS011;9804;52.350;6.684;2024-03-06T07:08:57;73.17;;;40.67;;
19339;SDS011;9804;52.350;6.684;2024-03-06T07:11:22;76.90;;;40.33;;
19339;SDS011;9804;52.350;6.684;2024-03-06T07:13:48;69.70;;;41.25;;
19339;SDS011;9804;52.350;6.684;2024-03-06T07:16:13;72.67;;;40.83;;
19339;SDS011;9804;52.350;6.684;2024-03-06T07:18:39;75.50;;;41.77;;
19339;SDS011;9804;52.350;6.684;2024-03-06T07:21:05;69.70;;;40.77;;
19339;SDS011;9804;52.350;6.684;2024-03-06T07:23:30;69.70;;;40.27;;
19339;SDS011;9804;52.350;6.684;2024-03-06T07:25:56;73.47;;;41.37;;
19339;SDS011;9804;52.350;6.684;2024-03-06T07:28:22;73.35;;;41.67;;
19339;SDS011;9804;52.350;6.684;2024-03-06T07:30:50;73.93;;;40.63;;
19339;SDS011;9804;52.350;6.684;2024-03-06T07:33:16;67.97;;;38.50;;
19339;SDS011;9804;52.350;6.684;2024-03-06T07:35:41;71.37;;;39.53;;
19339;SDS011;9804;52.350;6.684;2024-03-06T07:38:07;74.30;;;40.13;;
19339;SDS011;9804;52.350;6.684;2024-03-06T07:40:32;72.73;;;39.20;;
19339;SDS011;9804;52.350;6.684;2024-03-06T07:42:58;71.90;;;39.67;;
19339;SDS011;9804;52.350;6.684;2024-03-06T07:45:25;80.03;;;40.25;;
19339;SDS011;9804;52.350;6.684;2024-03-06T07:47:51;69.80;;;37.17;;
19339;SDS011;9804;52.350;6.684;2024-03-06T07:50:16;73.53;;;38.83;;
19339;SDS011;9804;52.350;6.684;2024-03-06T07:52:44;65.03;;;38.47;;
19339;SDS011;9804;52.350;6.684;2024-03-06T07:55:11;70.45;;;40.08;;
19339;SDS011;9804;52.350;6.684;2024-03-06T07:57:36;75.13;;;39.67;;
19339;SDS011;9804;52.350;6.684;2024-03-06T08:00:02;72.97;;;38.70;;
19339;SDS011;9804;52.350;6.684;2024-03-06T08:02:34;79.60;;;41.05;;
19339;SDS011;9804;52.350;6.684;2024-03-06T08:05:00;79.53;;;42.55;;
19339;SDS011;9804;52.350;6.684;2024-03-06T08:07:26;79.47;;;41.78;;
19339;SDS011;9804;52.350;6.684;2024-03-06T08:09:51;77.82;;;42.42;;
19339;SDS011;9804;52.350;6.684;2024-03-06T08:12:17;77.72;;;41.30;;
19339;SDS011;9804;52.350;6.684;2024-03-06T08:14:42;81.72;;;41.70;;
19339;SDS011;9804;52.350;6.684;2024-03-06T08:17:09;80.32;;;41.70;;
19339;SDS011;9804;52.350;6.684;2024-03-06T08:19:34;88.07;;;43.13;;
19339;SDS011;9804;52.350;6.684;2024-03-06T08:22:00;86.18;;;42.30;;
19339;SDS011;9804;52.350;6.684;2024-03-06T08:24:26;74.82;;;40.20;;
19339;SDS011;9804;52.350;6.684;2024-03-06T08:26:52;76.88;;;40.25;;
19339;SDS011;9804;52.350;6.684;2024-03-06T08:29:17;79.63;;;40.63;;
19339;SDS011;9804;52.350;6.684;2024-03-06T08:31:43;68.53;;;38.35;;
19339;SDS011;9804;52.350;6.684;2024-03-06T08:34:08;72.72;;;39.60;;
19339;SDS011;9804;52.350;6.684;2024-03-06T08:36:33;69.53;;;38.03;;
19339;SDS011;9804;52.350;6.684;2024-03-06T08:38:59;73.20;;;40.67;;
19339;SDS011;9804;52.350;6.684;2024-03-06T08:41:25;74.72;;;38.53;;
19339;SDS011;9804;52.350;6.684;2024-03-06T08:43:50;78.85;;;40.60;;
19339;SDS011;9804;52.350;6.684;2024-03-06T08:46:16;78.10;;;40.80;;
19339;SDS011;9804;52.350;6.684;2024-03-06T08:48:41;75.05;;;40.72;;
19339;SDS011;9804;52.350;6.684;2024-03-06T08:51:07;80.03;;;39.75;;
19339;SDS011;9804;52.350;6.684;2024-03-06T08:53:35;73.70;;;39.63;;
19339;SDS011;9804;52.350;6.684;2024-03-06T08:56:02;69.60;;;37.95;;
19339;SDS011;9804;52.350;6.684;2024-03-06T08:58:27;73.63;;;39.50;;
19339;SDS011;9804;52.350;6.684;2024-03-06T09:00:53;77.72;;;37.97;;
19339;SDS011;9804;52.350;6.684;2024-03-06T09:03:18;73.07;;;38.97;;
19339;SDS011;9804;52.350;6.684;2024-03-06T09:05:44;76.38;;;40.08;;
19339;SDS011;9804;52.350;6.684;2024-03-06T09:08:09;71.88;;;38.67;;
19339;SDS011;9804;52.350;6.684;2024-03-06T09:10:35;78.32;;;39.65;;
19339;SDS011;9804;52.350;6.684;2024-03-06T09:13:01;76.55;;;40.00;;
19339;SDS011;9804;52.350;6.684;2024-03-06T09:15:26;75.72;;;38.65;;
19339;SDS011;9804;52.350;6.684;2024-03-06T09:17:52;71.90;;;37.13;;
19339;SDS011;9804;52.350;6.684;2024-03-06T09:20:17;66.82;;;37.28;;
19339;SDS011;9804;52.350;6.684;2024-03-06T09:22:43;70.82;;;37.17;;
19339;SDS011;9804;52.350;6.684;2024-03-06T09:25:09;65.82;;;35.25;;
19339;SDS011;9804;52.350;6.684;2024-03-06T09:27:35;64.28;;;36.65;;
19339;SDS011;9804;52.350;6.684;2024-03-06T09:30:00;59.42;;;35.30;;
19339;SDS011;9804;52.350;6.684;2024-03-06T09:32:26;62.20;;;33.08;;
19339;SDS011;9804;52.350;6.684;2024-03-06T09:34:52;59.63;;;33.22;;
19339;SDS011;9804;52.350;6.684;2024-03-06T09:37:17;59.80;;;34.38;;
19339;SDS011;9804;52.350;6.684;2024-03-06T09:39:43;61.35;;;34.92;;
19339;SDS011;9804;52.350;6.684;2024-03-06T09:42:12;59.72;;;33.08;;
19339;SDS011;9804;52.350;6.684;2024-03-06T09:44:38;65.80;;;35.30;;
19339;SDS011;9804;52.350;6.684;2024-03-06T09:47:04;59.97;;;34.00;;
19339;SDS011;9804;52.350;6.684;2024-03-06T09:49:32;63.15;;;35.03;;
19339;SDS011;9804;52.350;6.684;2024-03-06T09:51:58;65.82;;;35.17;;
19339;SDS011;9804;52.350;6.684;2024-03-06T09:54:25;68.43;;;34.85;;
19339;SDS011;9804;52.350;6.684;2024-03-06T09:56:51;61.15;;;35.03;;
19339;SDS011;9804;52.350;6.684;2024-03-06T09:59:17;59.85;;;34.22;;
19339;SDS011;9804;52.350;6.684;2024-03-06T10:01:56;63.03;;;35.25;;
19339;SDS011;9804;52.350;6.684;2024-03-06T10:04:26;67.70;;;37.95;;
19339;SDS011;9804;52.350;6.684;2024-03-06T10:06:53;69.80;;;38.47;;
19339;SDS011;9804;52.350;6.684;2024-03-06T10:09:20;73.80;;;38.97;;
19339;SDS011;9804;52.350;6.684;2024-03-06T10:11:45;71.10;;;37.13;;
19339;SDS011;9804;52.350;6.684;2024-03-06T10:14:11;71.35;;;39.20;;
19339;SDS011;9804;52.350;6.684;2024-03-06T10:16:37;68.32;;;39.05;;
19339;SDS011;9804;52.350;6.684;2024-03-06T10:19:16;70.57;;;38.65;;
19339;SDS011;9804;52.350;6.684;2024-03-06T10:21:43;68.57;;;39.28;;
19339;SDS011;9804;52.350;6.684;2024-03-06T10:24:16;66.05;;;38.08;;
19339;SDS011;9804;52.350;6.684;2024-03-06T10:26:45;66.03;;;36.80;;
19339;SDS011;9804;52.350;6.684;2024-03-06T10:29:14;68.88;;;36.55;;
19339;SDS011;9804;52.350;6.684;2024-03-06T10:31:40;68.70;;;37.65;;
19339;SDS011;9804;52.350;6.684;2024-03-06T10:34:07;62.20;;;36.47;;
19339;SDS011;9804;52.350;6.684;2024-03-06T10:36:32;65.32;;;36.17;;
19339;SDS011;9804;52.350;6.684;2024-03-06T10:38:58;63.05;;;37.40;;
19339;SDS011;9804;52.350;6.684;2024-03-06T10:41:26;66.78;;;35.95;;
19339;SDS011;9804;52.350;6.684;2024-03-06T10:43:57;66.97;;;36.22;;
19339;SDS011;9804;52.350;6.684;2024-03-06T10:46:24;64.20;;;37.00;;
19339;SDS011;9804;52.350;6.684;2024-03-06T10:48:53;61.92;;;34.22;;
19339;SDS011;9804;52.350;6.684;2024-03-06T10:51:20;69.30;;;38.58;;
19339;SDS011;9804;52.350;6.684;2024-03-06T10:53:47;71.47;;;38.80;;
19339;SDS011;9804;52.350;6.684;2024-03-06T10:56:15;57.70;;;36.00;;
19339;SDS011;9804;52.350;6.684;2024-03-06T10:58:44;64.10;;;37.47;;
19339;SDS011;9804;52.350;6.684;2024-03-06T11:01:12;64.80;;;37.03;;
19339;SDS011;9804;52.350;6.684;2024-03-06T11:03:37;64.75;;;35.88;;
19339;SDS011;9804;52.350;6.684;2024-03-06T11:06:03;63.55;;;36.80;;
19339;SDS011;9804;52.350;6.684;2024-03-06T11:08:29;64.88;;;37.63;;
19339;SDS011;9804;52.350;6.684;2024-03-06T11:11:02;64.20;;;36.40;;
19339;SDS011;9804;52.350;6.684;2024-03-06T11:13:45;59.85;;;34.80;;
19339;SDS011;9804;52.350;6.684;2024-03-06T11:16:11;62.47;;;35.15;;
19339;SDS011;9804;52.350;6.684;2024-03-06T11:23:27;61.42;;;35.92;;
19339;SDS011;9804;52.350;6.684;2024-03-06T11:28:19;54.50;;;33.20;;
19339;SDS011;9804;52.350;6.684;2024-03-06T11:30:58;54.08;;;32.58;;
19339;SDS011;9804;52.350;6.684;2024-03-06T11:33:40;55.67;;;33.58;;
19339;SDS011;9804;52.350;6.684;2024-03-06T11:36:25;55.40;;;33.20;;
19339;SDS011;9804;52.350;6.684;2024-03-06T11:41:47;59.15;;;32.78;;
19339;SDS011;9804;52.350;6.684;2024-03-06T11:44:20;62.17;;;34.05;;
19339;SDS011;9804;52.350;6.684;2024-03-06T11:46:47;56.58;;;33.08;;
19339;SDS011;9804;52.350;6.684;2024-03-06T11:49:17;53.55;;;32.25;;
19339;SDS011;9804;52.350;6.684;2024-03-06T11:51:50;61.78;;;32.92;;
19339;SDS011;9804;52.350;6.684;2024-03-06T11:54:18;58.72;;;33.03;;
19339;SDS011;9804;52.350;6.684;2024-03-06T11:56:48;59.22;;;32.95;;
19339;SDS011;9804;52.350;6.684;2024-03-06T11:59:16;57.80;;;32.38;;
19339;SDS011;9804;52.350;6.684;2024-03-06T12:01:42;52.47;;;29.98;;
19339;SDS011;9804;52.350;6.684;2024-03-06T12:04:07;56.45;;;33.15;;
19339;SDS011;9804;52.350;6.684;2024-03-06T12:06:33;54.03;;;30.55;;
19339;SDS011;9804;52.350;6.684;2024-03-06T12:08:59;59.83;;;31.05;;
19339;SDS011;9804;52.350;6.684;2024-03-06T12:11:24;54.53;;;30.20;;
19339;SDS011;9804;52.350;6.684;2024-03-06T12:13:53;56.63;;;31.52;;
19339;SDS011;9804;52.350;6.684;2024-03-06T12:16:20;56.92;;;31.73;;
19339;SDS011;9804;52.350;6.684;2024-03-06T12:18:46;56.72;;;30.05;;
19339;SDS011;9804;52.350;6.684;2024-03-06T12:21:11;53.47;;;29.75;;
19339;SDS011;9804;52.350;6.684;2024-03-06T12:23:38;52.15;;;29.15;;
19339;SDS011;9804;52.350;6.684;2024-03-06T12:26:08;50.47;;;29.33;;
19339;SDS011;9804;52.350;6.684;2024-03-06T12:28:39;50.72;;;29.42;;
19339;SDS011;9804;52.350;6.684;2024-03-06T12:31:05;48.03;;;29.17;;
19339;SDS011;9804;52.350;6.684;2024-03-06T12:33:33;49.28;;;28.42;;
19339;SDS011;9804;52.350;6.684;2024-03-06T12:36:05;47.83;;;28.52;;
19339;SDS011;9804;52.350;6.684;2024-03-06T12:38:35;52.50;;;29.58;;
19339;SDS011;9804;52.350;6.684;2024-03-06T12:41:01;47.00;;;28.67;;
19339;SDS011;9804;52.350;6.684;2024-03-06T12:43:27;52.08;;;29.45;;
19339;SDS011;9804;52.350;6.684;2024-03-06T12:45:56;48.25;;;27.67;;
19339;SDS011;9804;52.350;6.684;2024-03-06T12:48:22;51.65;;;28.90;;
19339;SDS011;9804;52.350;6.684;2024-03-06T12:50:48;42.80;;;26.67;;
19339;SDS011;9804;52.350;6.684;2024-03-06T12:53:20;44.90;;;27.55;;
19339;SDS011;9804;52.350;6.684;2024-03-06T12:55:46;48.58;;;28.40;;
19339;SDS011;9804;52.350;6.684;2024-03-06T12:58:12;47.60;;;27.98;;
19339;SDS011;9804;52.350;6.684;2024-03-06T13:00:38;43.70;;;26.75;;
19339;SDS011;9804;52.350;6.684;2024-03-06T13:03:04;45.40;;;27.17;;
19339;SDS011;9804;52.350;6.684;2024-03-06T13:05:30;41.97;;;26.23;;
19339;SDS011;9804;52.350;6.684;2024-03-06T13:07:56;43.88;;;25.00;;
19339;SDS011;9804;52.350;6.684;2024-03-06T13:10:22;46.80;;;27.27;;
19339;SDS011;9804;52.350;6.684;2024-03-06T13:12:47;43.58;;;27.38;;
19339;SDS011;9804;52.350;6.684;2024-03-06T13:15:13;45.80;;;27.30;;
19339;SDS011;9804;52.350;6.684;2024-03-06T13:17:38;39.58;;;25.58;;
19339;SDS011;9804;52.350;6.684;2024-03-06T13:20:05;38.22;;;25.10;;
19339;SDS011;9804;52.350;6.684;2024-03-06T13:22:34;34.60;;;22.98;;
19339;SDS011;9804;52.350;6.684;2024-03-06T13:25:00;37.95;;;23.60;;
19339;SDS011;9804;52.350;6.684;2024-03-06T13:27:25;34.92;;;21.33;;
19339;SDS011;9804;52.350;6.684;2024-03-06T13:29:51;32.72;;;22.13;;
19339;SDS011;9804;52.350;6.684;2024-03-06T13:32:16;32.90;;;20.77;;
19339;SDS011;9804;52.350;6.684;2024-03-06T13:34:42;34.95;;;22.48;;
19339;SDS011;9804;52.350;6.684;2024-03-06T13:37:08;32.72;;;21.13;;
19339;SDS011;9804;52.350;6.684;2024-03-06T13:39:35;31.80;;;21.23;;
19339;SDS011;9804;52.350;6.684;2024-03-06T13:42:01;36.45;;;22.10;;
19339;SDS011;9804;52.350;6.684;2024-03-06T13:44:26;35.10;;;22.08;;
19339;SDS011;9804;52.350;6.684;2024-03-06T13:46:51;37.35;;;22.88;;
19339;SDS011;9804;52.350;6.684;2024-03-06T13:52:01;36.85;;;23.27;;
19339;SDS011;9804;52.350;6.684;2024-03-06T13:54:27;36.78;;;23.95;;
19339;SDS011;9804;52.350;6.684;2024-03-06T13:56:52;37.88;;;23.58;;
19339;SDS011;9804;52.350;6.684;2024-03-06T13:59:21;40.58;;;22.90;;
19339;SDS011;9804;52.350;6.684;2024-03-06T14:01:46;35.65;;;22.77;;
19339;SDS011;9804;52.350;6.684;2024-03-06T14:04:14;34.53;;;22.50;;
19339;SDS011;9804;52.350;6.684;2024-03-06T14:06:39;36.58;;;21.55;;
19339;SDS011;9804;52.350;6.684;2024-03-06T14:09:05;32.30;;;21.73;;
19339;SDS011;9804;52.350;6.684;2024-03-06T14:11:32;33.80;;;21.00;;
19339;SDS011;9804;52.350;6.684;2024-03-06T14:14:00;35.72;;;21.55;;
19339;SDS011;9804;52.350;6.684;2024-03-06T14:16:25;38.25;;;22.63;;
19339;SDS011;9804;52.350;6.684;2024-03-06T14:18:52;34.20;;;21.08;;
19339;SDS011;9804;52.350;6.684;2024-03-06T14:21:18;35.65;;;21.92;;
19339;SDS011;9804;52.350;6.684;2024-03-06T14:23:44;36.72;;;23.05;;
19339;SDS011;9804;52.350;6.684;2024-03-06T14:26:09;38.10;;;23.17;;
19339;SDS011;9804;52.350;6.684;2024-03-06T14:28:35;37.80;;;23.15;;
19339;SDS011;9804;52.350;6.684;2024-03-06T14:31:00;35.20;;;22.25;;
19339;SDS011;9804;52.350;6.684;2024-03-06T14:33:26;35.20;;;22.58;;
19339;SDS011;9804;52.350;6.684;2024-03-06T14:35:52;35.58;;;22.80;;
19339;SDS011;9804;52.350;6.684;2024-03-06T14:38:17;36.55;;;21.88;;
19339;SDS011;9804;52.350;6.684;2024-03-06T14:40:43;36.08;;;22.13;;